sensor_id;sensor_type;location;lat;lon;timestamp;temperature;humidity
42479;DHT22;28110;47.080;9.476;2022-10-16T00:01:58;15.30;99.90
42479;DHT22;28110;47.080;9.476;2022-10-16T00:04:24;15.40;99.90
42479;DHT22;28110;47.080;9.476;2022-10-16T00:06:49;15.40;99.90
42479;DHT22;28110;47.080;9.476;2022-10-16T00:09:15;15.40;99.90
42479;DHT22;28110;47.080;9.476;2022-10-16T00:11:40;15.40;99.90
42479;DHT22;28110;47.080;9.476;2022-10-16T00:14:10;15.40;99.90
42479;DHT22;28110;47.080;9.476;2022-10-16T00:16:36;15.50;99.90
42479;DHT22;28110;47.080;9.476;2022-10-16T00:19:02;15.50;99.90
42479;DHT22;28110;47.080;9.476;2022-10-16T00:21:29;15.50;99.90
42479;DHT22;28110;47.080;9.476;2022-10-16T00:24:00;15.50;99.90
42479;DHT22;28110;47.080;9.476;2022-10-16T00:26:28;15.50;99.90
42479;DHT22;28110;47.080;9.476;2022-10-16T00:28:53;15.50;99.90
42479;DHT22;28110;47.080;9.476;2022-10-16T00:31:21;15.50;99.90
42479;DHT22;28110;47.080;9.476;2022-10-16T00:33:47;15.40;99.90
42479;DHT22;28110;47.080;9.476;2022-10-16T00:36:16;15.40;99.90
42479;DHT22;28110;47.080;9.476;2022-10-16T00:38:42;15.40;99.90
42479;DHT22;28110;47.080;9.476;2022-10-16T00:41:09;15.40;99.90
42479;DHT22;28110;47.080;9.476;2022-10-16T00:43:43;15.40;99.90
42479;DHT22;28110;47.080;9.476;2022-10-16T00:46:39;15.50;99.90
42479;DHT22;28110;47.080;9.476;2022-10-16T00:49:15;15.50;99.90
42479;DHT22;28110;47.080;9.476;2022-10-16T00:51:44;15.40;99.90
42479;DHT22;28110;47.080;9.476;2022-10-16T00:54:14;15.40;99.90
42479;DHT22;28110;47.080;9.476;2022-10-16T00:56:41;15.40;99.90
42479;DHT22;28110;47.080;9.476;2022-10-16T00:59:26;15.40;99.90
42479;DHT22;28110;47.080;9.476;2022-10-16T01:01:53;15.50;99.90
42479;DHT22;28110;47.080;9.476;2022-10-16T01:04:19;15.50;99.90
42479;DHT22;28110;47.080;9.476;2022-10-16T01:12:51;15.40;99.90
42479;DHT22;28110;47.080;9.476;2022-10-16T01:15:27;15.40;99.90
42479;DHT22;28110;47.080;9.476;2022-10-16T01:20:58;15.50;99.90
42479;DHT22;28110;47.080;9.476;2022-10-16T01:28:57;15.60;99.90
42479;DHT22;28110;47.080;9.476;2022-10-16T01:31:30;15.60;99.90
42479;DHT22;28110;47.080;9.476;2022-10-16T01:34:12;15.50;99.90
42479;DHT22;28110;47.080;9.476;2022-10-16T01:36:44;15.50;99.90
42479;DHT22;28110;47.080;9.476;2022-10-16T01:39:11;15.60;99.90
42479;DHT22;28110;47.080;9.476;2022-10-16T01:41:41;15.60;99.90
42479;DHT22;28110;47.080;9.476;2022-10-16T01:44:16;15.60;99.90
42479;DHT22;28110;47.080;9.476;2022-10-16T01:46:46;15.60;99.90
42479;DHT22;28110;47.080;9.476;2022-10-16T01:49:12;15.70;99.90
42479;DHT22;28110;47.080;9.476;2022-10-16T01:51:39;15.60;99.90
42479;DHT22;28110;47.080;9.476;2022-10-16T01:54:07;15.60;99.90
42479;DHT22;28110;47.080;9.476;2022-10-16T01:56:34;15.60;99.90
42479;DHT22;28110;47.080;9.476;2022-10-16T01:59:06;15.60;99.90
42479;DHT22;28110;47.080;9.476;2022-10-16T02:01:35;15.60;99.90
42479;DHT22;28110;47.080;9.476;2022-10-16T02:04:08;15.50;99.90
42479;DHT22;28110;47.080;9.476;2022-10-16T02:06:35;15.50;99.90
42479;DHT22;28110;47.080;9.476;2022-10-16T02:09:01;15.50;99.90
42479;DHT22;28110;47.080;9.476;2022-10-16T02:11:26;15.50;99.90
42479;DHT22;28110;47.080;9.476;2022-10-16T02:13:55;15.50;99.90
42479;DHT22;28110;47.080;9.476;2022-10-16T02:16:33;15.50;99.90
42479;DHT22;28110;47.080;9.476;2022-10-16T02:18:59;15.60;99.90
42479;DHT22;28110;47.080;9.476;2022-10-16T02:21:30;15.60;99.90
42479;DHT22;28110;47.080;9.476;2022-10-16T02:24:38;15.50;99.90
42479;DHT22;28110;47.080;9.476;2022-10-16T02:27:10;15.60;99.90
42479;DHT22;28110;47.080;9.476;2022-10-16T02:29:41;15.60;99.90
42479;DHT22;28110;47.080;9.476;2022-10-16T02:32:10;15.70;99.90
42479;DHT22;28110;47.080;9.476;2022-10-16T02:34:38;15.80;99.90
42479;DHT22;28110;47.080;9.476;2022-10-16T02:37:05;15.90;99.90
42479;DHT22;28110;47.080;9.476;2022-10-16T02:39:32;15.90;99.90
42479;DHT22;28110;47.080;9.476;2022-10-16T02:41:58;16.00;99.90
42479;DHT22;28110;47.080;9.476;2022-10-16T02:44:24;16.10;99.90
42479;DHT22;28110;47.080;9.476;2022-10-16T02:46:50;16.00;99.90
42479;DHT22;28110;47.080;9.476;2022-10-16T02:49:16;16.10;99.90
42479;DHT22;28110;47.080;9.476;2022-10-16T02:51:41;16.10;99.90
42479;DHT22;28110;47.080;9.476;2022-10-16T02:54:07;16.00;99.90
42479;DHT22;28110;47.080;9.476;2022-10-16T02:56:32;16.00;99.90
42479;DHT22;28110;47.080;9.476;2022-10-16T02:58:58;15.90;99.90
42479;DHT22;28110;47.080;9.476;2022-10-16T03:01:24;15.90;99.90
42479;DHT22;28110;47.080;9.476;2022-10-16T03:03:49;16.00;99.90
42479;DHT22;28110;47.080;9.476;2022-10-16T03:06:15;16.00;99.90
42479;DHT22;28110;47.080;9.476;2022-10-16T03:08:40;16.00;99.90
42479;DHT22;28110;47.080;9.476;2022-10-16T03:11:06;16.20;99.90
42479;DHT22;28110;47.080;9.476;2022-10-16T03:13:32;16.10;99.90
42479;DHT22;28110;47.080;9.476;2022-10-16T03:15:57;16.10;99.90
42479;DHT22;28110;47.080;9.476;2022-10-16T03:18:23;16.20;99.90
42479;DHT22;28110;47.080;9.476;2022-10-16T03:20:48;16.10;99.90
42479;DHT22;28110;47.080;9.476;2022-10-16T03:23:14;16.10;99.90
42479;DHT22;28110;47.080;9.476;2022-10-16T03:25:39;16.00;99.90
42479;DHT22;28110;47.080;9.476;2022-10-16T03:28:05;16.00;99.90
42479;DHT22;28110;47.080;9.476;2022-10-16T03:30:31;15.90;99.90
42479;DHT22;28110;47.080;9.476;2022-10-16T03:32:56;15.90;99.90
42479;DHT22;28110;47.080;9.476;2022-10-16T03:35:23;16.00;99.90
42479;DHT22;28110;47.080;9.476;2022-10-16T03:37:49;16.10;99.90
42479;DHT22;28110;47.080;9.476;2022-10-16T03:40:15;16.10;99.90
42479;DHT22;28110;47.080;9.476;2022-10-16T03:42:42;16.10;99.90
42479;DHT22;28110;47.080;9.476;2022-10-16T03:45:09;16.20;99.90
42479;DHT22;28110;47.080;9.476;2022-10-16T03:47:35;16.20;99.90
42479;DHT22;28110;47.080;9.476;2022-10-16T03:50:00;16.20;99.90
42479;DHT22;28110;47.080;9.476;2022-10-16T03:52:26;16.30;99.90
42479;DHT22;28110;47.080;9.476;2022-10-16T03:54:51;16.20;99.90
42479;DHT22;28110;47.080;9.476;2022-10-16T03:57:17;16.20;99.90
42479;DHT22;28110;47.080;9.476;2022-10-16T03:59:43;16.10;99.90
42479;DHT22;28110;47.080;9.476;2022-10-16T04:02:09;16.10;99.90
42479;DHT22;28110;47.080;9.476;2022-10-16T04:04:34;16.00;99.90
42479;DHT22;28110;47.080;9.476;2022-10-16T04:07:00;16.00;99.90
42479;DHT22;28110;47.080;9.476;2022-10-16T04:09:26;16.00;99.90
42479;DHT22;28110;47.080;9.476;2022-10-16T04:11:52;15.90;99.90
42479;DHT22;28110;47.080;9.476;2022-10-16T04:14:17;15.80;99.90
42479;DHT22;28110;47.080;9.476;2022-10-16T04:16:43;15.70;99.90
42479;DHT22;28110;47.080;9.476;2022-10-16T04:19:10;15.60;99.90
42479;DHT22;28110;47.080;9.476;2022-10-16T04:21:36;15.60;99.90
42479;DHT22;28110;47.080;9.476;2022-10-16T04:24:02;15.60;99.90
42479;DHT22;28110;47.080;9.476;2022-10-16T04:26:28;15.50;99.90
42479;DHT22;28110;47.080;9.476;2022-10-16T04:28:53;15.60;99.90
42479;DHT22;28110;47.080;9.476;2022-10-16T04:31:19;15.80;99.90
42479;DHT22;28110;47.080;9.476;2022-10-16T04:33:45;16.00;99.90
42479;DHT22;28110;47.080;9.476;2022-10-16T04:36:11;16.20;99.90
42479;DHT22;28110;47.080;9.476;2022-10-16T04:38:37;16.20;99.90
42479;DHT22;28110;47.080;9.476;2022-10-16T04:41:05;16.30;99.90
42479;DHT22;28110;47.080;9.476;2022-10-16T04:43:30;16.30;99.90
42479;DHT22;28110;47.080;9.476;2022-10-16T04:45:56;16.30;99.90
42479;DHT22;28110;47.080;9.476;2022-10-16T04:48:22;16.30;99.90
42479;DHT22;28110;47.080;9.476;2022-10-16T04:50:47;16.40;99.90
42479;DHT22;28110;47.080;9.476;2022-10-16T04:53:13;16.40;99.90
42479;DHT22;28110;47.080;9.476;2022-10-16T04:55:39;16.40;99.90
42479;DHT22;28110;47.080;9.476;2022-10-16T04:58:05;16.30;99.90
42479;DHT22;28110;47.080;9.476;2022-10-16T05:00:30;16.40;99.90
42479;DHT22;28110;47.080;9.476;2022-10-16T05:02:56;16.40;99.90
42479;DHT22;28110;47.080;9.476;2022-10-16T05:05:22;16.50;99.90
42479;DHT22;28110;47.080;9.476;2022-10-16T05:07:48;16.50;99.90
42479;DHT22;28110;47.080;9.476;2022-10-16T05:10:15;16.50;99.90
42479;DHT22;28110;47.080;9.476;2022-10-16T05:12:40;16.50;99.90
42479;DHT22;28110;47.080;9.476;2022-10-16T05:15:06;16.50;99.90
42479;DHT22;28110;47.080;9.476;2022-10-16T05:17:32;16.50;99.90
42479;DHT22;28110;47.080;9.476;2022-10-16T05:19:57;16.50;99.90
42479;DHT22;28110;47.080;9.476;2022-10-16T05:22:23;16.50;99.90
42479;DHT22;28110;47.080;9.476;2022-10-16T05:24:48;16.40;99.90
42479;DHT22;28110;47.080;9.476;2022-10-16T05:27:14;16.40;99.90
42479;DHT22;28110;47.080;9.476;2022-10-16T05:29:48;16.40;99.90
42479;DHT22;28110;47.080;9.476;2022-10-16T05:32:14;16.50;99.90
42479;DHT22;28110;47.080;9.476;2022-10-16T05:34:40;16.40;99.90
42479;DHT22;28110;47.080;9.476;2022-10-16T05:37:06;16.40;99.90
42479;DHT22;28110;47.080;9.476;2022-10-16T05:39:32;16.40;99.90
42479;DHT22;28110;47.080;9.476;2022-10-16T05:41:57;16.30;99.90
42479;DHT22;28110;47.080;9.476;2022-10-16T05:44:23;16.30;99.90
42479;DHT22;28110;47.080;9.476;2022-10-16T05:46:48;16.30;99.90
42479;DHT22;28110;47.080;9.476;2022-10-16T05:49:14;16.20;99.90
42479;DHT22;28110;47.080;9.476;2022-10-16T05:51:39;16.20;99.90
42479;DHT22;28110;47.080;9.476;2022-10-16T05:54:06;16.20;99.90
42479;DHT22;28110;47.080;9.476;2022-10-16T05:56:32;16.30;99.90
42479;DHT22;28110;47.080;9.476;2022-10-16T05:58:57;16.40;99.90
42479;DHT22;28110;47.080;9.476;2022-10-16T06:01:23;16.40;99.90
42479;DHT22;28110;47.080;9.476;2022-10-16T06:03:50;16.50;99.90
42479;DHT22;28110;47.080;9.476;2022-10-16T06:06:21;16.50;99.90
42479;DHT22;28110;47.080;9.476;2022-10-16T06:08:48;16.60;99.90
42479;DHT22;28110;47.080;9.476;2022-10-16T06:11:20;16.60;99.90
42479;DHT22;28110;47.080;9.476;2022-10-16T06:13:50;16.60;99.90
42479;DHT22;28110;47.080;9.476;2022-10-16T06:16:15;16.70;99.90
42479;DHT22;28110;47.080;9.476;2022-10-16T06:18:41;16.70;99.90
42479;DHT22;28110;47.080;9.476;2022-10-16T06:21:15;16.70;99.90
42479;DHT22;28110;47.080;9.476;2022-10-16T06:23:42;16.80;99.90
42479;DHT22;28110;47.080;9.476;2022-10-16T06:26:09;16.80;99.90
42479;DHT22;28110;47.080;9.476;2022-10-16T06:28:35;16.70;99.90
42479;DHT22;28110;47.080;9.476;2022-10-16T06:31:02;16.70;99.90
42479;DHT22;28110;47.080;9.476;2022-10-16T06:33:28;16.70;99.90
42479;DHT22;28110;47.080;9.476;2022-10-16T06:35:53;16.80;99.90
42479;DHT22;28110;47.080;9.476;2022-10-16T06:38:24;16.70;99.90
42479;DHT22;28110;47.080;9.476;2022-10-16T06:40:50;16.80;99.90
42479;DHT22;28110;47.080;9.476;2022-10-16T06:43:16;16.80;99.90
42479;DHT22;28110;47.080;9.476;2022-10-16T06:45:41;16.80;99.90
42479;DHT22;28110;47.080;9.476;2022-10-16T06:48:07;16.70;99.90
42479;DHT22;28110;47.080;9.476;2022-10-16T06:50:32;16.70;99.90
42479;DHT22;28110;47.080;9.476;2022-10-16T06:52:58;16.70;99.90
42479;DHT22;28110;47.080;9.476;2022-10-16T06:55:24;16.80;99.90
42479;DHT22;28110;47.080;9.476;2022-10-16T06:57:49;16.80;99.90
42479;DHT22;28110;47.080;9.476;2022-10-16T07:00:15;16.90;99.90
42479;DHT22;28110;47.080;9.476;2022-10-16T07:02:41;17.00;99.90
42479;DHT22;28110;47.080;9.476;2022-10-16T07:05:06;17.10;99.90
42479;DHT22;28110;47.080;9.476;2022-10-16T07:07:32;17.10;99.90
42479;DHT22;28110;47.080;9.476;2022-10-16T07:09:57;17.20;99.90
42479;DHT22;28110;47.080;9.476;2022-10-16T07:12:23;17.20;99.90
42479;DHT22;28110;47.080;9.476;2022-10-16T07:14:49;17.10;99.90
42479;DHT22;28110;47.080;9.476;2022-10-16T07:17:17;17.10;99.90
42479;DHT22;28110;47.080;9.476;2022-10-16T07:19:43;17.10;99.90
42479;DHT22;28110;47.080;9.476;2022-10-16T07:22:08;17.10;99.90
42479;DHT22;28110;47.080;9.476;2022-10-16T07:24:34;17.10;99.90
42479;DHT22;28110;47.080;9.476;2022-10-16T07:26:59;17.20;99.90
42479;DHT22;28110;47.080;9.476;2022-10-16T07:29:25;17.20;99.90
42479;DHT22;28110;47.080;9.476;2022-10-16T07:31:50;17.30;99.90
42479;DHT22;28110;47.080;9.476;2022-10-16T07:34:18;17.40;99.90
42479;DHT22;28110;47.080;9.476;2022-10-16T07:36:43;17.40;99.90
42479;DHT22;28110;47.080;9.476;2022-10-16T07:39:09;17.50;99.90
42479;DHT22;28110;47.080;9.476;2022-10-16T07:41:35;17.60;99.90
42479;DHT22;28110;47.080;9.476;2022-10-16T07:44:02;17.60;99.90
42479;DHT22;28110;47.080;9.476;2022-10-16T07:46:29;17.70;99.90
42479;DHT22;28110;47.080;9.476;2022-10-16T07:48:55;17.80;99.90
42479;DHT22;28110;47.080;9.476;2022-10-16T07:51:23;18.00;99.90
42479;DHT22;28110;47.080;9.476;2022-10-16T07:53:49;18.00;99.90
42479;DHT22;28110;47.080;9.476;2022-10-16T07:56:16;18.10;99.90
42479;DHT22;28110;47.080;9.476;2022-10-16T07:58:42;18.00;99.90
42479;DHT22;28110;47.080;9.476;2022-10-16T08:01:10;18.00;99.90
42479;DHT22;28110;47.080;9.476;2022-10-16T08:03:36;18.10;99.90
42479;DHT22;28110;47.080;9.476;2022-10-16T08:06:03;18.00;99.90
42479;DHT22;28110;47.080;9.476;2022-10-16T08:08:29;18.10;99.90
42479;DHT22;28110;47.080;9.476;2022-10-16T08:10:55;18.20;99.90
42479;DHT22;28110;47.080;9.476;2022-10-16T08:13:21;18.30;99.90
42479;DHT22;28110;47.080;9.476;2022-10-16T08:15:47;18.40;99.90
42479;DHT22;28110;47.080;9.476;2022-10-16T08:18:14;18.50;99.90
42479;DHT22;28110;47.080;9.476;2022-10-16T08:20:41;18.60;99.90
42479;DHT22;28110;47.080;9.476;2022-10-16T08:23:07;18.70;99.90
42479;DHT22;28110;47.080;9.476;2022-10-16T08:25:35;18.80;99.90
42479;DHT22;28110;47.080;9.476;2022-10-16T08:28:06;18.80;99.90
42479;DHT22;28110;47.080;9.476;2022-10-16T08:30:32;18.80;99.90
42479;DHT22;28110;47.080;9.476;2022-10-16T08:32:58;18.90;99.90
42479;DHT22;28110;47.080;9.476;2022-10-16T08:35:24;19.00;99.90
42479;DHT22;28110;47.080;9.476;2022-10-16T08:37:50;19.10;99.90
42479;DHT22;28110;47.080;9.476;2022-10-16T08:40:24;19.20;99.90
42479;DHT22;28110;47.080;9.476;2022-10-16T08:50:40;19.60;99.90
42479;DHT22;28110;47.080;9.476;2022-10-16T08:53:07;19.70;99.90
42479;DHT22;28110;47.080;9.476;2022-10-16T08:55:49;19.80;99.90
42479;DHT22;28110;47.080;9.476;2022-10-16T08:58:18;19.80;99.90
42479;DHT22;28110;47.080;9.476;2022-10-16T09:00:51;19.90;99.90
42479;DHT22;28110;47.080;9.476;2022-10-16T09:12:01;20.10;99.90
42479;DHT22;28110;47.080;9.476;2022-10-16T09:23:14;20.10;99.90
42479;DHT22;28110;47.080;9.476;2022-10-16T09:25:43;20.20;99.90
42479;DHT22;28110;47.080;9.476;2022-10-16T09:28:10;20.30;99.90
42479;DHT22;28110;47.080;9.476;2022-10-16T09:30:35;20.50;99.90
42479;DHT22;28110;47.080;9.476;2022-10-16T09:33:02;20.70;99.90
42479;DHT22;28110;47.080;9.476;2022-10-16T09:35:38;20.80;99.90
42479;DHT22;28110;47.080;9.476;2022-10-16T09:38:05;20.90;99.90
42479;DHT22;28110;47.080;9.476;2022-10-16T09:40:36;21.00;99.90
42479;DHT22;28110;47.080;9.476;2022-10-16T09:48:21;21.30;99.90
42479;DHT22;28110;47.080;9.476;2022-10-16T09:50:59;21.40;99.90
42479;DHT22;28110;47.080;9.476;2022-10-16T09:53:40;21.40;99.90
42479;DHT22;28110;47.080;9.476;2022-10-16T09:56:06;21.30;99.90
42479;DHT22;28110;47.080;9.476;2022-10-16T09:58:32;21.30;99.90
42479;DHT22;28110;47.080;9.476;2022-10-16T10:00:59;21.30;99.90
42479;DHT22;28110;47.080;9.476;2022-10-16T10:03:39;21.30;99.90
42479;DHT22;28110;47.080;9.476;2022-10-16T10:08:54;21.30;99.90
42479;DHT22;28110;47.080;9.476;2022-10-16T10:11:43;21.30;99.90
42479;DHT22;28110;47.080;9.476;2022-10-16T10:16:44;21.30;99.90
42479;DHT22;28110;47.080;9.476;2022-10-16T10:19:21;21.30;99.90
42479;DHT22;28110;47.080;9.476;2022-10-16T10:21:48;21.30;99.90
42479;DHT22;28110;47.080;9.476;2022-10-16T10:24:15;21.30;99.90
42479;DHT22;28110;47.080;9.476;2022-10-16T10:27:04;21.30;99.90
42479;DHT22;28110;47.080;9.476;2022-10-16T10:32:44;21.50;99.90
42479;DHT22;28110;47.080;9.476;2022-10-16T10:35:15;21.60;99.90
42479;DHT22;28110;47.080;9.476;2022-10-16T10:38:16;21.70;99.90
42479;DHT22;28110;47.080;9.476;2022-10-16T10:46:12;21.90;99.90
42479;DHT22;28110;47.080;9.476;2022-10-16T10:56:57;21.80;99.90
42479;DHT22;28110;47.080;9.476;2022-10-16T11:02:23;21.90;99.90
42479;DHT22;28110;47.080;9.476;2022-10-16T11:07:50;21.90;99.90
42479;DHT22;28110;47.080;9.476;2022-10-16T11:10:22;22.00;99.90
42479;DHT22;28110;47.080;9.476;2022-10-16T11:12:56;22.00;99.90
42479;DHT22;28110;47.080;9.476;2022-10-16T11:15:31;22.00;99.90
42479;DHT22;28110;47.080;9.476;2022-10-16T11:18:08;21.90;99.90
42479;DHT22;28110;47.080;9.476;2022-10-16T11:20:52;21.90;99.90
42479;DHT22;28110;47.080;9.476;2022-10-16T11:25:49;21.90;99.90
42479;DHT22;28110;47.080;9.476;2022-10-16T11:28:35;21.90;99.90
42479;DHT22;28110;47.080;9.476;2022-10-16T11:31:08;22.00;99.90
42479;DHT22;28110;47.080;9.476;2022-10-16T11:33:45;22.00;99.90
42479;DHT22;28110;47.080;9.476;2022-10-16T11:36:23;22.00;99.90
42479;DHT22;28110;47.080;9.476;2022-10-16T11:41:44;22.00;99.90
42479;DHT22;28110;47.080;9.476;2022-10-16T11:46:48;22.00;99.90
42479;DHT22;28110;47.080;9.476;2022-10-16T11:49:20;22.00;99.90
42479;DHT22;28110;47.080;9.476;2022-10-16T11:52:03;22.00;99.90
42479;DHT22;28110;47.080;9.476;2022-10-16T11:57:24;22.00;99.90
42479;DHT22;28110;47.080;9.476;2022-10-16T11:59:56;22.00;99.90
42479;DHT22;28110;47.080;9.476;2022-10-16T12:07:38;22.10;99.90
42479;DHT22;28110;47.080;9.476;2022-10-16T12:10:28;22.10;99.90
42479;DHT22;28110;47.080;9.476;2022-10-16T12:12:54;22.00;99.90
42479;DHT22;28110;47.080;9.476;2022-10-16T12:15:27;22.00;99.90
42479;DHT22;28110;47.080;9.476;2022-10-16T12:17:53;22.00;99.90
42479;DHT22;28110;47.080;9.476;2022-10-16T12:20:29;22.00;99.90
42479;DHT22;28110;47.080;9.476;2022-10-16T12:23:03;22.00;99.90
42479;DHT22;28110;47.080;9.476;2022-10-16T12:25:35;22.00;99.90
42479;DHT22;28110;47.080;9.476;2022-10-16T12:30:42;21.90;99.90
42479;DHT22;28110;47.080;9.476;2022-10-16T12:33:32;21.90;99.90
42479;DHT22;28110;47.080;9.476;2022-10-16T12:36:00;21.90;99.90
42479;DHT22;28110;47.080;9.476;2022-10-16T12:41:11;21.90;99.90
42479;DHT22;28110;47.080;9.476;2022-10-16T12:43:47;21.90;99.90
42479;DHT22;28110;47.080;9.476;2022-10-16T12:48:40;21.90;99.90
42479;DHT22;28110;47.080;9.476;2022-10-16T12:54:28;21.90;99.90
42479;DHT22;28110;47.080;9.476;2022-10-16T12:57:02;22.00;99.90
42479;DHT22;28110;47.080;9.476;2022-10-16T12:59:55;22.00;99.90
42479;DHT22;28110;47.080;9.476;2022-10-16T13:02:46;22.00;99.90
42479;DHT22;28110;47.080;9.476;2022-10-16T13:23:34;22.10;99.90
42479;DHT22;28110;47.080;9.476;2022-10-16T13:26:13;22.00;99.90
42479;DHT22;28110;47.080;9.476;2022-10-16T13:28:42;22.10;99.90
42479;DHT22;28110;47.080;9.476;2022-10-16T13:31:36;22.10;99.90
42479;DHT22;28110;47.080;9.476;2022-10-16T13:34:03;22.30;99.90
42479;DHT22;28110;47.080;9.476;2022-10-16T13:36:36;22.40;99.90
42479;DHT22;28110;47.080;9.476;2022-10-16T13:39:12;22.50;99.90
42479;DHT22;28110;47.080;9.476;2022-10-16T13:41:38;22.50;99.90
42479;DHT22;28110;47.080;9.476;2022-10-16T13:44:04;22.60;99.90
42479;DHT22;28110;47.080;9.476;2022-10-16T13:46:30;22.60;99.90
42479;DHT22;28110;47.080;9.476;2022-10-16T13:49:10;22.60;99.90
42479;DHT22;28110;47.080;9.476;2022-10-16T13:51:36;22.50;99.90
42479;DHT22;28110;47.080;9.476;2022-10-16T13:54:02;22.40;99.90
42479;DHT22;28110;47.080;9.476;2022-10-16T13:56:30;22.30;99.90
42479;DHT22;28110;47.080;9.476;2022-10-16T13:59:00;22.30;99.90
42479;DHT22;28110;47.080;9.476;2022-10-16T14:01:29;22.30;99.90
42479;DHT22;28110;47.080;9.476;2022-10-16T14:04:04;22.20;99.90
42479;DHT22;28110;47.080;9.476;2022-10-16T14:06:30;22.30;99.90
42479;DHT22;28110;47.080;9.476;2022-10-16T14:09:06;22.50;99.90
42479;DHT22;28110;47.080;9.476;2022-10-16T14:11:33;22.50;99.90
42479;DHT22;28110;47.080;9.476;2022-10-16T14:14:00;22.50;99.90
42479;DHT22;28110;47.080;9.476;2022-10-16T14:16:29;22.50;99.90
42479;DHT22;28110;47.080;9.476;2022-10-16T14:19:03;22.50;99.90
42479;DHT22;28110;47.080;9.476;2022-10-16T14:21:31;22.50;99.90
42479;DHT22;28110;47.080;9.476;2022-10-16T14:23:57;22.40;99.90
42479;DHT22;28110;47.080;9.476;2022-10-16T14:26:27;22.30;99.90
42479;DHT22;28110;47.080;9.476;2022-10-16T14:29:22;22.10;99.90
42479;DHT22;28110;47.080;9.476;2022-10-16T14:34:34;21.80;99.90
42479;DHT22;28110;47.080;9.476;2022-10-16T14:39:39;21.70;99.90
42479;DHT22;28110;47.080;9.476;2022-10-16T14:42:14;21.50;99.90
42479;DHT22;28110;47.080;9.476;2022-10-16T14:44:42;21.40;99.90
42479;DHT22;28110;47.080;9.476;2022-10-16T14:47:10;21.30;99.90
42479;DHT22;28110;47.080;9.476;2022-10-16T14:49:38;21.20;99.90
42479;DHT22;28110;47.080;9.476;2022-10-16T14:52:09;21.10;99.90
42479;DHT22;28110;47.080;9.476;2022-10-16T14:54:35;21.00;99.90
42479;DHT22;28110;47.080;9.476;2022-10-16T14:57:01;20.90;99.90
42479;DHT22;28110;47.080;9.476;2022-10-16T14:59:40;20.70;99.90
42479;DHT22;28110;47.080;9.476;2022-10-16T15:02:30;20.60;99.90
42479;DHT22;28110;47.080;9.476;2022-10-16T15:04:57;20.50;99.90
42479;DHT22;28110;47.080;9.476;2022-10-16T15:07:23;20.40;99.90
42479;DHT22;28110;47.080;9.476;2022-10-16T15:09:48;20.30;99.90
42479;DHT22;28110;47.080;9.476;2022-10-16T15:12:14;20.10;99.90
42479;DHT22;28110;47.080;9.476;2022-10-16T15:14:39;20.10;99.90
42479;DHT22;28110;47.080;9.476;2022-10-16T15:17:05;20.00;99.90
42479;DHT22;28110;47.080;9.476;2022-10-16T15:19:30;20.00;99.90
42479;DHT22;28110;47.080;9.476;2022-10-16T15:21:56;19.90;99.90
42479;DHT22;28110;47.080;9.476;2022-10-16T15:24:22;19.90;99.90
42479;DHT22;28110;47.080;9.476;2022-10-16T15:26:48;19.80;99.90
42479;DHT22;28110;47.080;9.476;2022-10-16T15:29:15;19.70;99.90
42479;DHT22;28110;47.080;9.476;2022-10-16T15:31:41;19.70;99.90
42479;DHT22;28110;47.080;9.476;2022-10-16T15:34:09;19.70;99.90
42479;DHT22;28110;47.080;9.476;2022-10-16T15:36:36;19.60;99.90
42479;DHT22;28110;47.080;9.476;2022-10-16T15:39:22;19.60;99.90
42479;DHT22;28110;47.080;9.476;2022-10-16T15:41:48;19.50;99.90
42479;DHT22;28110;47.080;9.476;2022-10-16T15:44:18;19.40;99.90
42479;DHT22;28110;47.080;9.476;2022-10-16T15:46:44;19.40;99.90
42479;DHT22;28110;47.080;9.476;2022-10-16T15:49:10;19.30;99.90
42479;DHT22;28110;47.080;9.476;2022-10-16T15:51:41;19.30;99.90
42479;DHT22;28110;47.080;9.476;2022-10-16T15:54:07;19.20;99.90
42479;DHT22;28110;47.080;9.476;2022-10-16T15:56:33;19.20;99.90
42479;DHT22;28110;47.080;9.476;2022-10-16T15:59:01;19.10;99.90
42479;DHT22;28110;47.080;9.476;2022-10-16T16:01:27;19.10;99.90
42479;DHT22;28110;47.080;9.476;2022-10-16T16:03:54;19.00;99.90
42479;DHT22;28110;47.080;9.476;2022-10-16T16:06:21;19.00;99.90
42479;DHT22;28110;47.080;9.476;2022-10-16T16:08:47;18.90;99.90
42479;DHT22;28110;47.080;9.476;2022-10-16T16:11:14;18.90;99.90
42479;DHT22;28110;47.080;9.476;2022-10-16T16:13:40;18.80;99.90
42479;DHT22;28110;47.080;9.476;2022-10-16T16:16:13;18.70;99.90
42479;DHT22;28110;47.080;9.476;2022-10-16T16:18:39;18.70;99.90
42479;DHT22;28110;47.080;9.476;2022-10-16T16:21:06;18.70;99.90
42479;DHT22;28110;47.080;9.476;2022-10-16T16:23:31;18.60;99.90
42479;DHT22;28110;47.080;9.476;2022-10-16T16:26:11;18.60;99.90
42479;DHT22;28110;47.080;9.476;2022-10-16T16:28:37;18.50;99.90
42479;DHT22;28110;47.080;9.476;2022-10-16T16:31:03;18.40;99.90
42479;DHT22;28110;47.080;9.476;2022-10-16T16:33:29;18.30;99.90
42479;DHT22;28110;47.080;9.476;2022-10-16T16:36:01;18.30;99.90
42479;DHT22;28110;47.080;9.476;2022-10-16T16:38:28;18.20;99.90
42479;DHT22;28110;47.080;9.476;2022-10-16T16:40:55;18.10;99.90
42479;DHT22;28110;47.080;9.476;2022-10-16T16:43:25;18.10;99.90
42479;DHT22;28110;47.080;9.476;2022-10-16T16:45:52;18.00;99.90
42479;DHT22;28110;47.080;9.476;2022-10-16T16:48:18;18.00;99.90
42479;DHT22;28110;47.080;9.476;2022-10-16T16:50:43;17.90;99.90
42479;DHT22;28110;47.080;9.476;2022-10-16T16:53:09;17.80;99.90
42479;DHT22;28110;47.080;9.476;2022-10-16T16:55:35;17.80;99.90
42479;DHT22;28110;47.080;9.476;2022-10-16T16:58:00;17.80;99.90
42479;DHT22;28110;47.080;9.476;2022-10-16T17:00:26;17.70;99.90
42479;DHT22;28110;47.080;9.476;2022-10-16T17:02:51;17.70;99.90
42479;DHT22;28110;47.080;9.476;2022-10-16T17:05:17;17.70;99.90
42479;DHT22;28110;47.080;9.476;2022-10-16T17:07:43;17.60;99.90
42479;DHT22;28110;47.080;9.476;2022-10-16T17:10:09;17.60;99.90
42479;DHT22;28110;47.080;9.476;2022-10-16T17:12:35;17.50;99.90
42479;DHT22;28110;47.080;9.476;2022-10-16T17:15:01;17.50;99.90
42479;DHT22;28110;47.080;9.476;2022-10-16T17:17:27;17.50;99.90
42479;DHT22;28110;47.080;9.476;2022-10-16T17:19:53;17.40;99.90
42479;DHT22;28110;47.080;9.476;2022-10-16T17:22:19;17.40;99.90
42479;DHT22;28110;47.080;9.476;2022-10-16T17:24:48;17.40;99.90
42479;DHT22;28110;47.080;9.476;2022-10-16T17:27:15;17.30;99.90
42479;DHT22;28110;47.080;9.476;2022-10-16T17:29:41;17.30;99.90
42479;DHT22;28110;47.080;9.476;2022-10-16T17:32:06;17.30;99.90
42479;DHT22;28110;47.080;9.476;2022-10-16T17:34:32;17.20;99.90
42479;DHT22;28110;47.080;9.476;2022-10-16T17:36:57;17.20;99.90
42479;DHT22;28110;47.080;9.476;2022-10-16T17:39:23;17.00;99.90
42479;DHT22;28110;47.080;9.476;2022-10-16T17:41:48;17.00;99.90
42479;DHT22;28110;47.080;9.476;2022-10-16T17:44:15;17.00;99.90